Time;durP1;ratioP1;P1;durP2;ratioP2;P2;SDS_P1;SDS_P2;PMS_P1;PMS_P2;Temp;Humidity;BMP_temperature;BMP_pressure;BME280_temperature;BME280_humidity;BME280_pressure;Samples;Min_cycle;Max_cycle;Signal;HPM_P1;HPM_P2
2023/07/30 20:28:37;;;;;;;6.00;4.70;;;;;;;18.22;82.26;99805.33;100272;307;621266;-55
2023/07/30 20:31:12;;;;;;;9.20;5.60;;;;;;;18.18;82.37;99803.85;101682;289;97318;-58
2023/07/30 20:33:53;;;;;;;8.20;5.20;;;;;;;18.17;82.54;99807.65;101719;289;97509;-58
2023/07/30 20:36:36;;;;;;;7.90;4.80;;;;;;;18.16;82.72;99805.39;101879;287;116557;-56
2023/07/30 20:39:16;;;;;;;5.50;4.50;;;;;;;18.18;82.76;99811.13;101865;287;104827;-56
2023/07/30 20:41:58;;;;;;;6.00;4.50;;;;;;;18.21;82.87;99813.73;101490;285;724674;-54
2023/07/30 20:44:43;;;;;;;6.20;4.70;;;;;;;18.30;82.91;99815.34;101967;285;96471;-54
2023/07/30 20:47:34;;;;;;;7.30;5.40;;;;;;;18.38;82.67;99817.95;101964;284;96655;-56
2023/07/30 20:50:15;;;;;;;5.40;4.70;;;;;;;18.46;82.41;99817.23;102385;280;117948;-56
2023/07/30 20:52:59;;;;;;;5.10;4.40;;;;;;;18.56;82.13;99823.46;102428;279;105512;-56
2023/07/30 20:55:41;;;;;;;6.20;5.50;;;;;;;18.66;82.00;99822.59;102370;279;114620;-57
2023/07/30 20:58:26;;;;;;;5.50;4.90;;;;;;;18.76;81.73;99821.02;102380;280;97461;-57
2023/07/30 21:01:35;;;;;;;5.60;4.80;;;;;;;18.88;81.53;99817.37;100478;304;619184;-58
2023/07/30 21:04:11;;;;;;;7.00;5.70;;;;;;;18.98;81.12;99816.80;101924;286;95099;-58
2023/07/30 21:06:51;;;;;;;7.20;5.30;;;;;;;19.08;80.97;99807.61;101903;286;98690;-55
2023/07/30 21:09:30;;;;;;;6.50;4.40;;;;;;;19.12;80.83;99809.13;102445;279;116807;-54
2023/07/30 21:12:48;;;;;;;6.60;4.40;;;;;;;19.21;80.45;99808.87;100339;307;619599;-54
2023/07/30 21:15:34;;;;;;;7.70;4.50;;;;;;;19.21;80.20;99807.30;101848;288;96788;-54
2023/07/30 21:18:18;;;;;;;5.70;3.90;;;;;;;19.22;79.93;99807.95;101804;288;97676;-53
2023/07/30 21:20:57;;;;;;;5.30;4.00;;;;;;;19.23;79.74;99806.81;101800;288;115288;-57
2023/07/30 21:23:34;;;;;;;5.10;4.30;;;;;;;19.20;79.80;99809.16;101804;288;104332;-55
2023/07/30 21:26:14;;;;;;;8.50;4.90;;;;;;;19.20;79.65;99810.73;101830;280;576348;-55
2023/07/30 21:28:56;;;;;;;5.50;4.20;;;;;;;19.16;79.61;99809.39;102417;279;94188;-56
2023/07/30 21:34:29;;;;;;;5.60;4.30;;;;;;;19.13;79.63;99808.27;102375;279;117324;-56
2023/07/30 21:37:08;;;;;;;4.30;3.90;;;;;;;19.12;79.51;99811.09;102447;279;105975;-57
2023/07/30 21:39:49;;;;;;;5.10;3.60;;;;;;;19.10;79.71;99809.88;102408;279;114855;-57
2023/07/30 21:42:29;;;;;;;6.20;3.90;;;;;;;19.07;79.59;99806.34;102421;279;96353;-54
2023/07/30 21:45:05;;;;;;;4.60;4.10;;;;;;;19.05;79.75;99810.05;102421;279;97663;-55
2023/07/30 21:47:45;;;;;;;6.30;4.50;;;;;;;19.06;79.68;99807.75;102435;279;118295;-56
2023/07/30 21:50:21;;;;;;;4.30;3.90;;;;;;;19.03;79.71;99808.89;102436;279;105237;-56
2023/07/30 21:53:04;;;;;;;4.70;4.20;;;;;;;19.03;79.54;99810.04;102356;279;114915;-52
2023/07/30 21:55:46;;;;;;;6.70;3.90;;;;;;;19.02;79.86;99809.91;102393;279;97062;-54
2023/07/30 21:58:24;;;;;;;4.60;3.80;;;;;;;19.01;79.79;99805.73;102426;279;98000;-55
2023/07/30 22:01:01;;;;;;;4.90;4.40;;;;;;;19.05;79.94;99804.62;102400;279;117720;-56
2023/07/30 22:03:38;;;;;;;7.20;3.70;;;;;;;19.06;79.95;99804.09;102414;279;104292;-55
2023/07/30 22:06:20;;;;;;;7.00;4.40;;;;;;;19.07;79.99;99807.05;102414;279;114176;-57
2023/07/30 22:09:00;;;;;;;5.80;3.90;;;;;;;19.07;79.96;99800.81;102413;279;96799;-56
2023/07/30 22:11:41;;;;;;;4.40;3.90;;;;;;;19.06;80.19;99797.13;102452;279;98368;-54
2023/07/30 22:14:20;;;;;;;4.20;3.60;;;;;;;19.05;80.14;99796.02;102474;279;118514;-54
2023/07/30 22:16:59;;;;;;;4.60;3.70;;;;;;;19.03;80.13;99795.80;102466;279;105339;-55
2023/07/30 22:19:42;;;;;;;7.50;3.80;;;;;;;19.01;80.21;99802.13;102375;279;114791;-55
2023/07/30 22:22:44;;;;;;;7.40;5.10;;;;;;;19.02;80.22;99798.52;100605;301;618588;-57
2023/07/30 22:25:23;;;;;;;5.20;4.60;;;;;;;18.94;80.14;99798.59;102084;282;97521;-57
2023/07/30 22:28:01;;;;;;;6.60;4.50;;;;;;;18.89;80.36;99803.58;102152;283;97151;-57
2023/07/30 22:30:43;;;;;;;4.50;4.00;;;;;;;18.87;80.34;99800.77;102495;279;118009;-52
2023/07/30 22:33:22;;;;;;;5.80;3.30;;;;;;;18.91;80.54;99794.20;102508;279;105564;-55
2023/07/30 22:36:04;;;;;;;3.70;3.40;;;;;;;18.94;80.38;99797.73;101914;279;757641;-57
2023/07/30 22:38:40;;;;;;;6.60;3.40;;;;;;;18.97;80.49;99803.55;102617;277;96506;-58
2023/07/30 22:41:22;;;;;;;4.20;3.70;;;;;;;19.00;80.50;99807.98;102778;277;97280;-54
2023/07/30 22:43:58;;;;;;;4.50;3.30;;;;;;;19.03;80.49;99806.19;102778;277;118834;-54
2023/07/30 22:46:40;;;;;;;5.20;3.10;;;;;;;19.04;80.39;99808.02;102819;277;105416;-54
2023/07/30 22:49:17;;;;;;;4.10;3.40;;;;;;;19.03;80.35;99808.32;102824;277;112252;-54
2023/07/30 22:51:57;;;;;;;4.40;3.40;;;;;;;18.99;80.15;99809.44;102625;277;97351;-57
2023/07/30 22:54:36;;;;;;;3.80;3.00;;;;;;;18.93;80.29;99806.42;102761;275;97509;-58
2023/07/30 22:57:11;;;;;;;4.60;3.60;;;;;;;18.88;80.16;99805.86;102763;265;119204;-57
2023/07/30 22:59:47;;;;;;;3.50;3.00;;;;;;;18.87;80.08;99809.52;102774;277;105251;-55
2023/07/30 23:02:25;;;;;;;4.70;3.40;;;;;;;18.83;80.01;99809.05;102808;277;115107;-56
2023/07/30 23:05:00;;;;;;;3.50;3.10;;;;;;;18.81;80.06;99813.29;102756;277;97311;-55
2023/07/30 23:07:38;;;;;;;4.70;3.50;;;;;;;18.74;80.17;99809.61;102770;277;96598;-53
2023/07/30 23:10:13;;;;;;;3.10;2.80;;;;;;;18.70;80.22;99811.52;102692;277;119358;-52
2023/07/30 23:12:50;;;;;;;4.70;2.90;;;;;;;18.64;80.09;99812.77;102698;277;105106;-54
2023/07/30 23:15:27;;;;;;;5.00;2.80;;;;;;;18.59;80.00;99810.64;103321;277;113003;-53
2023/07/30 23:18:06;;;;;;;4.60;3.00;;;;;;;18.52;80.18;99810.88;102727;277;95523;-53
2023/07/30 23:20:47;;;;;;;3.50;2.90;;;;;;;18.44;80.19;99813.98;102732;277;97928;-56
2023/07/30 23:23:30;;;;;;;4.00;3.20;;;;;;;18.37;80.25;99813.73;102748;277;118912;-54
2023/07/30 23:26:16;;;;;;;2.70;2.40;;;;;;;18.29;80.27;99809.03;102795;277;105786;-56
2023/07/30 23:28:57;;;;;;;2.70;2.40;;;;;;;18.22;80.50;99812.76;102726;277;114946;-56
2023/07/30 23:31:33;;;;;;;3.30;2.80;;;;;;;18.14;80.57;99812.44;102750;277;97187;-54
2023/07/30 23:34:12;;;;;;;4.70;2.70;;;;;;;18.09;80.75;99811.71;102695;277;97025;-54
2023/07/30 23:36:49;;;;;;;3.80;2.40;;;;;;;18.05;80.96;99813.02;102732;277;118344;-53
2023/07/30 23:39:30;;;;;;;3.10;2.50;;;;;;;17.99;81.04;99815.56;102741;266;104466;-53
2023/07/30 23:42:09;;;;;;;2.90;2.40;;;;;;;17.93;81.13;99816.51;102735;277;114538;-56
2023/07/30 23:44:46;;;;;;;3.50;2.40;;;;;;;17.90;81.34;99819.91;102713;277;95931;-56
2023/07/30 23:47:26;;;;;;;3.00;2.60;;;;;;;17.85;81.36;99817.16;102753;277;96960;-58
2023/07/30 23:50:05;;;;;;;3.30;2.50;;;;;;;17.78;81.33;99817.11;102658;277;119310;-57
2023/07/30 23:52:47;;;;;;;3.10;2.40;;;;;;;17.69;81.69;99812.23;102721;277;104922;-54
2023/07/30 23:59:05;;;;;;;4.60;2.60;;;;;;;17.55;81.89;99808.27;102691;277;95555;-55
